Air Navigation Services of Czech Republic
Airport: LKTB Updated:  03.12.2021 19:30:28  UTC
 METAR LKTB 03.12. 19:30 ...
METAR LKTB 031930Z 00000KT CAVOK M02/M05 Q1014 NOSIG RMK REG QNH 1006=
 TAF LKTB 03.12. 17:00 ...
TAF LKTB 031700Z 0318/0500 26008KT CAVOK      BECMG 0319/0321 VRB02KT 3000 BR NSC      TEMPO 0322/0405 1500 BR BKN004      PROB30 TEMPO 0323/0405 0700 FZFG OVC003      BECMG 0405/0407 17010KT 9999 SCT020      TEMPO 0409/0414 18014G28KT      BECMG 0412/0415 -SNRA OVC014      TEMPO 0415/0500 3000 SN OVC008      PROB30 TEMPO 0421/0500 1500 SNRA BR OVC004=